x

New Dungeness - 17 Nm Ne Of Port Angeles, Wa (46088) Wave Buoy

8:20 - Fri 27th May 2016 All times are PDT. -7 hours from GMT.

  • Sig Wave height 1.3ft
  • Swell Direction
  • Peak Period 3s
  • Average Period 3s
  • Wind
    11mph, 13mph gusts
  • Sea Temp 50°f
  • Ar Temp 51°f
  • Sea Pressure 1020.2mb
  • New Dungeness - 17 Nm Ne Of Port Angeles, Wa
  • New Dungeness - 17 Nm Ne Of Port Angeles, Wa

More Historic Weather Station data

Upgrade to MSW Pro to gain access to the past 30 days of data for over 8000 Wavebouys and Weather Stations around the globe.

Join Pro

Comparision Forecast

View Surf forecast
   
Sex 05/27 8:20 1.3ft 3s 3s 11 13 mph 1020.2mb 50f 51f
7:50 1.6ft 3s 3s 13 16 mph 1020mb 50f 51f
7:20 1.6ft 4s 3s 13 16 mph 1019.7mb 50f 51f
6:50 2ft 3s 3s 11 13 mph 1019.6mb 50f 51f
6:20 2ft 4s 3s 13 18 mph 1019.4mb 50f 51f
5:50 2.5ft 4s 4s 18 20 mph 1019.1mb 50f 51f
5:20 2.5ft 4s 4s 18 20 mph 1019mb 50f 51f
4:50 2.5ft 4s 4s 16 18 mph 1018.9mb 50f 51f
4:20 2.5ft 4s 4s 18 22 mph 1018.8mb 50f 51f
3:50 2.5ft 5s 4s 18 22 mph 1019mb 50f 51f
3:20 2.5ft 5s 4s 20 25 mph 1019.1mb 50f 51f
2:50 2.5ft 4s 4s 20 27 mph 1019.1mb 50f 51f
2:20 2.5ft 5s 4s 20 25 mph 1019.2mb 50f 51f
1:50 2.5ft 4s 4s 20 25 mph 1019.2mb 50f 51f
1:20 2.5ft 4s 4s 20 25 mph 1019.2mb 51f 51f
12:50 2.5ft 4s 4s 22 27 mph 1019.1mb 51f 51f
12:20 2.5ft 4s 4s 20 27 mph 1019.3mb 51f 51f
Qui 05/26 11:50 2ft 4s 3s 20 25 mph 1019.6mb 50f 51f
11:20 2ft 4s 3s 18 25 mph 1019.9mb 50f 51f
10:50 1.6ft 3s 3s 16 22 mph 1020mb 50f 52f
10:20 1.6ft 4s 3s 16 20 mph 1020.1mb 51f 52f
9:50 2.5ft 3s 3s 20 22 mph 1019.9mb 51f 52f
9:20 2.5ft 3s 3s 20 22 mph 1019.6mb 51f 52f
8:50 3ft 4s 3s 27 34 mph 1018.5mb 51f 52f
8:20 3.5ft 4s 3s 27 31 mph 1018.6mb 51f 53f
7:50 2.5ft 4s 3s 31 36 mph 1018mb 51f 53f
7:20 3.5ft 4s 3s 27 34 mph 1018.3mb 51f 53f
6:50 3.5ft 4s 4s 27 31 mph 1018.6mb 51f 53f
6:20 4ft 4s 4s 29 34 mph 1018.4mb 51f 53f
5:50 4.5ft 5s 4s 25 29 mph 1019.2mb 51f 53f
5:20 3.5ft 4s 4s 25 29 mph 1019.5mb 51f 54f
4:50 3ft 4s 4s 16 20 mph 1020.1mb 51f 54f
4:20 3.5ft 4s 4s 18 22 mph 1020.1mb 51f 54f
3:50 3ft 4s 4s 18 20 mph 1020.2mb 51f 54f
3:20 2.5ft 5s 4s 16 20 mph 1020.5mb 51f 53f
2:50 2.5ft 5s 4s 16 20 mph 1020.5mb 51f 53f
2:20 2ft 5s 4s 13 16 mph 1020.6mb 51f 53f
1:50 1.6ft 4s 4s 13 16 mph 1020.9mb 51f 53f
1:20 1.3ft 4s 4s 9 13 mph 1021.1mb 51f 53f
12:50 1ft 4s 3s 13 16 mph 1021.1mb 51f 53f
12:20 1ft 4s 3s 13 16 mph 1021.1mb 51f 53f
11:50 1ft 4s 3s 11 16 mph 1021.2mb 51f 53f
11:20 1ft 4s 3s 9 11 mph 1021.3mb 51f 52f
10:50 1ft 4s 3s 9 11 mph 1021.3mb 51f 52f
10:20 1ft 4s 3s 9 11 mph 1021.4mb 51f 52f
9:50 1ft 4s 3s 9 11 mph 1021.5mb 51f 52f
9:20 1.3ft 3s 4s 9 13 mph 1021.5mb 51f 52f
8:50 1ft 7s 3s 11 16 mph 1021.5mb 51f 52f
8:20 1.3ft 4s 3s 13 16 mph 1021.4mb 51f 52f
7:50 1.3ft 3s 3s 13 16 mph 1021.3mb 51f 52f
7:20 1.6ft 4s 3s 13 18 mph 1021.3mb 51f 52f
6:50 1.6ft 3s 3s 13 18 mph 1021mb 51f 51f
6:20 1.6ft 4s 3s 13 16 mph 1021mb 50f 51f
5:50 2ft 4s 3s 13 16 mph 1020.8mb 50f 51f
5:20 2ft 4s 3s 16 18 mph 1020.7mb 50f 51f
4:50 2.5ft 4s 4s 13 16 mph 1020.7mb 50f 51f
4:20 2.5ft 4s 4s 18 20 mph 1020.7mb 50f 52f
3:50 2.5ft 4s 4s 20 25 mph 1020.8mb 50f 52f
3:20 2.5ft 4s 4s 20 25 mph 1020.7mb 50f 52f
2:50 2.5ft 4s 4s 22 25 mph 1020.5mb 50f 52f
2:20 2.5ft 4s 4s 20 22 mph 1020.6mb 50f 52f
1:50 2.5ft 5s 4s 20 25 mph 1020.7mb 50f 52f
1:20 2ft 4s 4s 18 22 mph 1020.7mb 50f 52f
12:50 2.5ft 5s 4s 20 22 mph 1020.7mb 51f 52f
12:20 2.5ft 4s 4s 18 22 mph 1020.9mb 51f 52f
Qua 05/25 11:50 2.5ft 4s 4s 18 22 mph 1021mb 51f 53f
11:20 2.5ft 4s 4s 20 22 mph 1020.7mb 51f 53f
10:50 2.5ft 4s 4s 20 25 mph 1020.3mb 51f 53f
10:20 2.5ft 4s 3s 22 29 mph 1020.1mb 51f 53f
9:50 2.5ft 4s 3s 22 27 mph 1020.2mb 51f 53f
9:20 2.5ft 4s 3s 20 25 mph 1020mb 51f 54f
8:50 2ft 3s 3s 25 29 mph 1019.8mb 51f 54f
8:20 1.6ft 3s 3s 20 25 mph 1019.9mb 51f 54f
7:50 2ft 3s 3s 18 22 mph 1019.8mb 51f 55f
7:20 2ft 3s 3s 18 20 mph 1019.6mb 51f 55f
6:50 2ft 3s 3s 18 22 mph 1019.5mb 51f 55f
6:20 2.5ft 3s 4s 18 20 mph 1019.6mb 51f 55f
5:50 2.5ft 3s 4s 18 22 mph 1019.7mb 51f 55f
5:20 2.5ft 6s 4s 18 20 mph 1019.9mb 51f 55f
4:50 2.5ft 7s 4s 16 18 mph 1020.1mb 51f 55f
4:20 2.5ft 7s 4s 13 16 mph 1020.3mb 51f 55f
3:50 2.5ft 8s 5s 16 18 mph 1020.4mb 51f 55f
3:20 2.5ft 7s 5s 11 13 mph 1020.5mb 51f 54f
2:50 2ft 8s 5s 11 13 mph 1020.7mb 52f 54f
2:20 1.6ft 8s 5s 11 13 mph 1020.7mb 51f 54f
1:50 1.6ft 8s 5s 9 11 mph 1020.6mb 51f 53f
1:20 1.6ft 8s 5s 9
mph
1020.5mb 51f 53f
12:50 1.3ft 9s 5s 9 11 mph 1020.3mb 51f 53f
12:20 1.3ft 9s 4s 9 11 mph 1020.2mb 51f 54f
11:50 1ft 5s 4s 9 13 mph 1020.1mb 51f 53f
11:20 1ft 5s 4s 11 16 mph 1019.9mb 51f 53f
10:50 1ft 4s 4s 9 11 mph 1019.9mb 51f 53f
10:20 1ft 4s 4s 9 11 mph 1019.7mb 51f 53f
9:50 1ft 4s 4s 9 11 mph 1019.3mb 51f 52f
9:20 1ft 4s 4s 9 11 mph 1019.1mb 51f 52f
8:50 1.3ft 4s 3s 9 11 mph 1019mb 51f 52f
8:20 1.3ft 4s 3s 11 13 mph 1018.8mb 50f 52f
7:50 1.3ft 4s 3s 13 16 mph 1018.5mb 50f 52f
7:20 1.6ft 4s 3s 13 16 mph 1018.2mb 50f 52f
6:50 1.6ft 3s 3s 16 20 mph 1017.8mb 51f 52f
6:20 2ft 4s 3s 18 20 mph 1017.7mb 51f 52f
5:50 2ft 4s 3s 18 20 mph 1017.5mb 51f 52f
5:20 2ft 4s 3s 18 20 mph 1017.2mb 51f 52f
4:50 2.5ft 4s 3s 18 20 mph 1016.9mb 50f 52f
4:20 2ft 4s 3s 18 20 mph 1016.6mb 50f 52f
3:50 2ft 4s 3s 18 20 mph 1016.4mb 50f 52f
3:20 1.6ft 4s 3s 16 18 mph 1016.4mb 50f 52f
2:50 2ft 4s 4s 13 18 mph 1016.4mb 50f 53f
2:20 2ft 4s 4s 13 16 mph 1016.4mb 51f 53f
1:50 2ft 4s 4s 16 18 mph 1016.1mb 51f 53f
1:20 2ft 4s 4s 16 18 mph 1016mb 51f 53f
12:50 2ft 4s 4s 18 20 mph 1016mb 51f 53f
12:20 1.6ft 3s 3s 16 18 mph 1015.9mb 51f 53f
Ter 05/24 11:50 1.3ft 3s 3s 16 20 mph 1016mb 51f 53f
11:20 1.3ft 3s 3s 16 18 mph 1015.8mb 51f 53f
10:50 1ft 3s 3s 16 18 mph 1015.8mb 51f 53f
10:20 1ft 3s 3s 13 16 mph 1015.7mb 51f 53f
9:50 1ft 3s 3s 16 18 mph 1015.5mb 51f 53f
9:20 1ft 7s 3s 16 18 mph 1015.3mb 51f 53f
8:50 1ft 2s 3s 16
mph
1015.1mb 51f 53f
8:20 1ft 2s 3s 16 18 mph 1015mb 51f 53f
7:50 1.3ft 3s 3s 13 16 mph 1014.9mb 51f 53f
7:20 1ft 2s  -  13 16 mph 1015mb 51f 53f
6:50 1ft 3s 3s 13 16 mph 1015.1mb 51f 53f
6:20 1.3ft 7s 3s 13 16 mph 1015.1mb 51f 53f
5:50 1.6ft 3s 3s 11 13 mph 1015.2mb 51f 53f
5:20 1.6ft 3s 3s 13 16 mph 1015.3mb 51f 53f
4:50 2ft 6s 4s 13 16 mph 1015.3mb 51f 53f
4:20 2ft 8s 4s 13
mph
1015.3mb 51f 53f
3:50 2.5ft 8s 5s 11 13 mph 1015.5mb 51f 53f
3:20 2ft 8s 5s 11 13 mph 1015.6mb 51f 54f
2:50 2ft 8s 5s 11 13 mph 1015.7mb 51f 54f
2:20 1.6ft 8s 5s 9 11 mph 1015.6mb 51f 54f
1:50 1.3ft 4s 4s 7 9 mph 1015.7mb 51f 53f
1:20 1.3ft 9s 4s 9
mph
1015.5mb 51f 53f
12:50 1.3ft 8s 4s 9 11 mph 1015.3mb 51f 53f
12:20 1.3ft 10s 4s 11
mph
1015.2mb 51f 53f
11:50 1ft 8s 5s 11 13 mph 1015.1mb 51f 53f
11:20 1ft 10s 4s 11 13 mph 1015mb 51f 53f
10:50 1ft 4s 4s 9
mph
1014.8mb 51f 52f
10:20 1ft 4s 4s 9 11 mph 1014.7mb 51f 52f
9:50 1ft 6s 4s 11 13 mph 1014.5mb 51f 52f
9:20 1ft 4s 4s 13 16 mph 1014.3mb 51f 52f
8:50 1ft 4s 3s 13 16 mph 1014.1mb 51f 52f
8:20 1.3ft 3s 4s 16 18 mph 1014mb 51f 52f
7:50 1.3ft 4s 3s 13 16 mph 1013.8mb 51f 52f
7:20 1.3ft 3s 3s 16 18 mph 1013.5mb 51f 52f
6:50 1.3ft 3s 3s 16 18 mph 1013.3mb 51f 52f
6:20 1.3ft 3s 3s 13 16 mph 1013.2mb 51f 52f
5:50 1.3ft 3s 3s 13 16 mph 1013.1mb 51f 52f
5:20 1.3ft 3s 3s 16 18 mph 1013.1mb 51f 52f
4:50 1.3ft 3s 3s 16 18 mph 1013mb 51f 52f
4:20 1.3ft 3s 3s 16
mph
1013mb 51f 52f
3:50 1.3ft 3s 3s 16 18 mph 1013.2mb 51f 52f
3:20 1.3ft 3s 3s 16 20 mph 1013mb 51f 52f
2:50 1.3ft 3s 3s 16 18 mph 1012.9mb 51f 52f
2:20 1.3ft 4s 3s 13 16 mph 1012.9mb 51f 52f
1:50 1.3ft 3s 3s 13 16 mph 1013.1mb 51f 52f
1:20 1.3ft 3s 3s 13 16 mph 1013.2mb 51f 52f
12:50 1.3ft 3s 3s 13 18 mph 1013.1mb 51f 52f
12:20 1.6ft 4s 3s 13 16 mph 1013.2mb 51f 52f
Seg 05/23 11:50 1.3ft 3s 3s 16 18 mph 1013mb 51f 53f
11:20 1.6ft 3s 3s 16 18 mph 1012.9mb 51f 53f
10:50 1.3ft 3s 3s 16 18 mph 1012.9mb 51f 53f
10:20 1.3ft 3s 3s 18 20 mph 1012.8mb 51f 53f
9:50 1.3ft 3s 3s 18 20 mph 1012.7mb 51f 53f
9:20 1.3ft 3s 3s 20 22 mph 1012.5mb 51f 53f
8:50 1.3ft 3s 3s 18 20 mph 1012.4mb 51f 53f
8:20 1.3ft 3s 3s 18 20 mph 1012.4mb 51f 53f
7:50 1ft 9s 3s 16 18 mph 1012.4mb 51f 53f
7:20 1ft 7s 4s 13 16 mph 1012.4mb 51f 53f
6:50 1.3ft 9s 4s 13 16 mph 1012.4mb 51f 53f
6:20 1.3ft 7s 3s 13 16 mph 1012.5mb 51f 53f
5:50 1.6ft 8s 4s 16 18 mph 1012.6mb 52f 53f
5:20 1.3ft 8s 4s 9 16 mph 1012.9mb 52f 54f
4:50 1.3ft 7s 5s 7 9 mph 1013.3mb 52f 54f
4:20 1.6ft 8s 5s 7 9 mph 1013.3mb 52f 53f